createdAt,value
2018-04-06T07:25:01.120Z,1025.18
2018-04-06T07:25:13.725Z,1025.19
2018-04-06T07:25:26.365Z,1025.25
2018-04-06T07:25:38.956Z,1025.26
2018-04-06T07:25:51.598Z,1025.23
2018-04-06T07:26:04.523Z,1025.19
2018-04-06T07:26:17.397Z,1025.18
2018-04-06T07:26:29.995Z,1025.19
2018-04-06T07:26:42.614Z,1025.20
2018-04-06T07:26:55.244Z,1025.23
2018-04-06T07:27:07.888Z,1025.21
2018-04-06T07:29:38.632Z,1025.25
2018-04-06T07:29:51.277Z,1025.24
2018-04-06T07:30:03.893Z,1025.29
2018-04-06T07:30:16.511Z,1025.22
2018-04-06T07:30:29.108Z,1025.27
2018-04-06T07:30:41.721Z,1025.23
2018-04-06T07:30:54.311Z,1025.26
2018-04-06T07:31:06.903Z,1025.30
2018-04-06T07:31:19.498Z,1025.25
2018-04-06T07:31:32.088Z,1025.28
2018-04-06T07:31:44.683Z,1025.28
2018-04-06T07:31:57.277Z,1025.27
2018-04-06T07:32:09.869Z,1025.24
2018-04-06T07:32:22.495Z,1025.25
2018-04-06T07:32:35.130Z,1025.22
2018-04-06T07:32:47.724Z,1025.25
2018-04-06T07:33:00.315Z,1025.18
2018-04-06T07:33:12.910Z,1025.18
2018-04-06T07:33:25.507Z,1025.19
2018-04-06T07:33:38.157Z,1025.19
2018-04-06T07:33:50.765Z,1025.20
2018-04-06T07:34:03.363Z,1025.22
2018-04-06T07:34:15.957Z,1025.24
2018-04-06T07:34:28.571Z,1025.17
2018-04-06T07:34:41.163Z,1025.17
2018-04-06T07:34:53.758Z,1025.19
2018-04-06T07:35:06.358Z,1025.19
2018-04-06T07:35:18.972Z,1025.19
2018-04-06T07:35:31.566Z,1025.20
2018-04-06T07:35:44.209Z,1025.20
2018-04-06T07:35:56.801Z,1025.20
2018-04-06T07:36:09.396Z,1025.21
2018-04-06T07:36:22.038Z,1025.19
2018-04-06T07:36:34.629Z,1025.22
2018-04-06T07:36:47.223Z,1025.21
2018-04-06T07:36:59.839Z,1025.23
2018-04-06T07:37:12.429Z,1025.21
2018-04-06T07:37:25.041Z,1025.22
2018-04-06T07:37:37.646Z,1025.21
2018-04-06T07:37:50.496Z,1025.23
2018-04-06T07:38:03.070Z,1025.23
2018-04-06T07:38:15.693Z,1025.25
2018-04-06T07:38:28.336Z,1025.22
2018-04-06T07:38:40.933Z,1025.24
2018-04-06T07:38:53.545Z,1025.20
2018-04-06T07:39:06.140Z,1025.23
2018-04-06T07:39:18.752Z,1025.22
2018-04-06T07:39:31.346Z,1025.23
2018-04-06T07:39:43.963Z,1025.27
2018-04-06T07:39:56.573Z,1025.32
2018-04-06T07:40:09.173Z,1025.30
2018-04-06T07:40:21.775Z,1025.28
2018-04-06T07:40:34.400Z,1025.26
2018-04-06T07:40:46.987Z,1025.22
2018-04-06T07:40:59.584Z,1025.30
2018-04-06T07:41:12.225Z,1025.27
2018-04-06T07:41:24.852Z,1025.29
2018-04-06T07:41:37.462Z,1025.31
2018-04-06T07:41:50.056Z,1025.30
2018-04-06T07:42:02.673Z,1025.32
2018-04-06T07:42:15.262Z,1025.31
2018-04-06T07:42:27.861Z,1025.33
2018-04-06T07:42:40.469Z,1025.33
2018-04-06T07:42:53.064Z,1025.38
2018-04-06T07:43:05.707Z,1025.34
2018-04-06T07:43:18.296Z,1025.38
2018-04-06T07:43:30.895Z,1025.35
2018-04-06T07:43:43.482Z,1025.33
2018-04-06T07:43:56.128Z,1025.36
2018-04-06T07:44:08.744Z,1025.37
2018-04-06T07:44:21.380Z,1025.38
2018-04-06T07:44:33.936Z,1025.36
2018-04-06T07:44:46.548Z,1025.37
2018-04-06T07:44:59.142Z,1025.36
2018-04-06T07:45:11.740Z,1025.38
2018-04-06T07:45:24.330Z,1025.39
2018-04-06T07:45:36.925Z,1025.41
2018-04-06T07:45:49.520Z,1025.36
2018-04-06T07:46:02.116Z,1025.37
2018-04-06T07:46:14.736Z,1025.35
2018-04-06T07:46:27.376Z,1025.36
2018-04-06T07:46:39.972Z,1025.37
2018-04-06T07:46:52.567Z,1025.38
2018-04-06T07:47:05.231Z,1025.42
2018-04-06T07:47:17.825Z,1025.39
2018-04-06T07:47:30.421Z,1025.40
2018-04-06T07:47:43.022Z,1025.37
2018-04-06T07:47:55.615Z,1025.42
2018-04-06T07:48:08.210Z,1025.39
2018-04-06T07:48:20.829Z,1025.44
2018-04-06T07:48:33.417Z,1025.43
2018-04-06T07:48:46.018Z,1025.41
2018-04-06T07:48:58.611Z,1025.46
2018-04-06T07:49:11.203Z,1025.41
2018-04-06T07:49:23.805Z,1025.43
2018-04-06T07:49:36.387Z,1025.41
2018-04-06T07:49:48.983Z,1025.40
2018-04-06T07:50:01.580Z,1025.46
2018-04-06T07:50:14.194Z,1025.40
2018-04-06T07:50:26.771Z,1025.45
2018-04-06T07:50:39.513Z,1025.45
2018-04-06T07:50:52.067Z,1025.44
2018-04-06T07:51:04.714Z,1025.44
2018-04-06T07:51:17.326Z,1025.46
2018-04-06T07:51:29.919Z,1025.45
2018-04-06T07:51:42.512Z,1025.43
2018-04-06T07:51:55.252Z,1025.44
2018-04-06T07:52:07.867Z,1025.45
2018-04-06T07:52:20.485Z,1025.47
2018-04-06T07:52:33.144Z,1025.48
2018-04-06T07:52:45.738Z,1025.47
2018-04-06T07:52:58.394Z,1025.46
2018-04-06T07:53:11.027Z,1025.50
2018-04-06T07:53:23.654Z,1025.47
2018-04-06T07:53:36.293Z,1025.49
2018-04-06T07:53:48.886Z,1025.51
2018-04-06T07:54:01.478Z,1025.50
2018-04-06T07:54:14.077Z,1025.53
2018-04-06T07:54:26.697Z,1025.51
2018-04-06T07:54:39.316Z,1025.50
2018-04-06T07:54:51.960Z,1025.50
2018-04-06T07:55:04.547Z,1025.52
2018-04-06T07:55:17.143Z,1025.53
2018-04-06T07:55:29.743Z,1025.55
2018-04-06T07:55:42.357Z,1025.54
2018-04-06T07:55:54.948Z,1025.56
2018-04-06T07:56:07.537Z,1025.55
2018-04-06T07:56:22.301Z,1025.55
2018-04-06T07:56:32.750Z,1025.56
2018-04-06T07:56:45.339Z,1025.56
2018-04-06T07:56:57.976Z,1025.53
2018-04-06T07:57:10.543Z,1025.57
2018-04-06T07:57:23.191Z,1025.58
2018-04-06T07:57:36.008Z,1025.50
2018-04-06T07:57:48.606Z,1025.54
2018-04-06T07:58:01.222Z,1025.54
2018-04-06T07:58:13.813Z,1025.54
2018-04-06T07:58:26.413Z,1025.55
2018-04-06T07:58:39.075Z,1025.55
2018-04-06T07:58:51.672Z,1025.51
2018-04-06T07:59:04.318Z,1025.52
2018-04-06T07:59:16.906Z,1025.58
2018-04-06T07:59:29.523Z,1025.57
2018-04-06T07:59:42.122Z,1025.56
2018-04-06T07:59:54.739Z,1025.56
2018-04-06T08:00:07.326Z,1025.59
2018-04-06T08:00:19.917Z,1025.58
2018-04-06T08:00:32.523Z,1025.57
2018-04-06T08:00:45.132Z,1025.55
2018-04-06T08:00:57.729Z,1025.57
2018-04-06T08:01:10.343Z,1025.56
2018-04-06T08:01:22.940Z,1025.59
2018-04-06T08:01:35.534Z,1025.57
2018-04-06T08:01:48.147Z,1025.57
2018-04-06T08:02:00.745Z,1025.56
2018-04-06T08:02:13.365Z,1025.53
2018-04-06T08:02:26.041Z,1025.57
2018-04-06T08:02:38.807Z,1025.57
2018-04-06T08:02:51.415Z,1025.61
2018-04-06T08:03:04.009Z,1025.55
2018-04-06T08:03:16.607Z,1025.54
2018-04-06T08:03:29.195Z,1025.54
2018-04-06T08:03:41.855Z,1025.54
2018-04-06T08:03:54.433Z,1025.56
2018-04-06T08:04:07.027Z,1025.54
2018-04-06T08:04:19.619Z,1025.54
2018-04-06T08:04:32.263Z,1025.53
2018-04-06T08:04:44.856Z,1025.52
2018-04-06T08:04:57.455Z,1025.50
2018-04-06T08:05:10.073Z,1025.51
2018-04-06T08:05:22.669Z,1025.51
2018-04-06T08:05:35.285Z,1025.53
2018-04-06T08:05:47.944Z,1025.54
2018-04-06T08:06:00.637Z,1025.55
2018-04-06T08:06:13.335Z,1025.53
2018-04-06T08:06:26.096Z,1025.56
2018-04-06T08:06:38.846Z,1025.57
2018-04-06T08:06:51.554Z,1025.57
2018-04-06T08:07:04.182Z,1025.56
2018-04-06T08:07:16.868Z,1025.59
2018-04-06T08:07:29.545Z,1025.54
2018-04-06T08:07:42.197Z,1025.58
2018-04-06T08:07:54.888Z,1025.59
2018-04-06T08:08:07.597Z,1025.59
2018-04-06T08:08:20.274Z,1025.59
2018-04-06T08:08:32.906Z,1025.62
2018-04-06T08:08:45.759Z,1025.60
2018-04-06T08:08:58.409Z,1025.58
2018-04-06T08:09:11.114Z,1025.65
2018-04-06T08:09:23.802Z,1025.61
2018-04-06T08:09:36.469Z,1025.57
2018-04-06T08:09:49.169Z,1025.61
2018-04-06T08:10:01.897Z,1025.62
2018-04-06T08:10:14.605Z,1025.59
2018-04-06T08:10:27.278Z,1025.62
2018-04-06T08:10:39.962Z,1025.64
2018-04-06T08:10:52.650Z,1025.60
2018-04-06T08:11:05.389Z,1025.61
2018-04-06T08:11:18.093Z,1025.63
2018-04-06T08:11:30.768Z,1025.67
2018-04-06T08:11:43.443Z,1025.65
2018-04-06T08:11:56.171Z,1025.62
2018-04-06T08:12:08.850Z,1025.66
2018-04-06T08:12:21.517Z,1025.67
2018-04-06T08:12:34.148Z,1025.64
2018-04-06T08:12:46.750Z,1025.70
2018-04-06T08:12:59.373Z,1025.70
2018-04-06T08:13:11.971Z,1025.68
2018-04-06T08:13:24.603Z,1025.74
2018-04-06T08:13:37.225Z,1025.74
2018-04-06T08:13:49.843Z,1025.75
2018-04-06T08:14:02.412Z,1025.72
2018-04-06T08:14:15.009Z,1025.73
2018-04-06T08:14:27.951Z,1025.71
2018-04-06T08:14:41.022Z,1025.70
2018-04-06T08:14:54.029Z,1025.73
2018-04-06T08:15:06.851Z,1025.73
2018-04-06T08:15:19.443Z,1025.72
2018-04-06T08:15:32.045Z,1025.67
2018-04-06T08:15:44.662Z,1025.65
2018-04-06T08:15:57.249Z,1025.70
2018-04-06T08:16:09.899Z,1025.70
2018-04-06T08:16:22.493Z,1025.74
2018-04-06T08:16:35.089Z,1025.70
2018-04-06T08:16:47.684Z,1025.66
2018-04-06T08:17:00.303Z,1025.68
2018-04-06T08:17:12.915Z,1025.71
2018-04-06T08:17:25.515Z,1025.67
2018-04-06T08:17:38.102Z,1025.70
2018-04-06T08:17:50.697Z,1025.70
2018-04-06T08:18:03.292Z,1025.69
2018-04-06T08:18:15.884Z,1025.69
2018-04-06T08:18:28.478Z,1025.69
2018-04-06T08:18:41.118Z,1025.70
2018-04-06T08:18:53.715Z,1025.69
2018-04-06T08:19:06.333Z,1025.69
2018-04-06T08:19:18.954Z,1025.69
2018-04-06T08:19:31.567Z,1025.67
2018-04-06T08:19:44.210Z,1025.71
2018-04-06T08:19:56.802Z,1025.71
2018-04-06T08:20:09.397Z,1025.68
2018-04-06T08:20:21.992Z,1025.68
2018-04-06T08:20:34.609Z,1025.72
2018-04-06T08:20:47.229Z,1025.70
2018-04-06T08:20:59.819Z,1025.70
2018-04-06T08:21:12.437Z,1025.74
2018-04-06T08:21:25.051Z,1025.68
2018-04-06T08:21:37.649Z,1025.72
2018-04-06T08:21:50.264Z,1025.75
2018-04-06T08:22:02.865Z,1025.72
2018-04-06T08:22:15.475Z,1025.72
2018-04-06T08:22:28.066Z,1025.71
2018-04-06T08:22:40.665Z,1025.72
2018-04-06T08:22:53.278Z,1025.73
2018-04-06T08:23:05.868Z,1025.75
2018-04-06T08:23:18.463Z,1025.68
2018-04-06T08:23:31.080Z,1025.71
2018-04-06T08:23:43.672Z,1025.71
2018-04-06T08:23:56.266Z,1025.66
2018-04-06T08:24:08.855Z,1025.71
2018-04-06T08:24:21.450Z,1025.68
2018-04-06T08:24:34.043Z,1025.68
2018-04-06T08:24:46.657Z,1025.68
2018-04-06T08:24:59.258Z,1025.69
2018-04-06T08:25:11.867Z,1025.69
2018-04-06T08:25:24.487Z,1025.70
2018-04-06T08:25:37.096Z,1025.70
2018-04-06T08:25:49.699Z,1025.68
2018-04-06T08:26:02.292Z,1025.74
2018-04-06T08:26:14.924Z,1025.68
2018-04-06T08:26:27.552Z,1025.71
2018-04-06T08:26:40.089Z,1025.75
2018-04-06T08:26:52.675Z,1025.71
2018-04-06T08:27:05.320Z,1025.72
2018-04-06T08:27:17.918Z,1025.71
2018-04-06T08:27:30.533Z,1025.71
2018-04-06T08:27:43.128Z,1025.69
2018-04-06T08:27:55.719Z,1025.74
2018-04-06T08:28:08.317Z,1025.72
2018-04-06T08:28:20.909Z,1025.71
2018-04-06T08:28:33.505Z,1025.73
2018-04-06T08:28:46.104Z,1025.74
2018-04-06T08:28:58.695Z,1025.73
2018-04-06T08:29:11.290Z,1025.74
2018-04-06T08:29:23.876Z,1025.73
2018-04-06T08:29:36.478Z,1025.76
2018-04-06T08:29:49.070Z,1025.75
2018-04-06T08:30:01.686Z,1025.73
2018-04-06T08:30:14.331Z,1025.76
2018-04-06T08:30:26.921Z,1025.75
2018-04-06T08:30:39.522Z,1025.71
2018-04-06T08:30:52.180Z,1025.73
2018-04-06T08:31:04.775Z,1025.72
2018-04-06T08:31:17.366Z,1025.71
2018-04-06T08:31:29.957Z,1025.68
2018-04-06T08:31:42.548Z,1025.68
2018-04-06T08:31:55.141Z,1025.68
2018-04-06T08:32:07.733Z,1025.68
2018-04-06T08:32:20.327Z,1025.70
2018-04-06T08:32:32.920Z,1025.68
2018-04-06T08:32:45.536Z,1025.65
2018-04-06T08:32:58.128Z,1025.66
2018-04-06T08:33:10.731Z,1025.62
2018-04-06T08:33:23.339Z,1025.65
2018-04-06T08:33:35.954Z,1025.62
2018-04-06T08:33:48.555Z,1025.59
2018-04-06T08:34:01.147Z,1025.63
2018-04-06T08:34:13.745Z,1025.62
2018-04-06T08:34:26.359Z,1025.63
2018-04-06T08:34:38.958Z,1025.62
2018-04-06T08:34:51.580Z,1025.65
2018-04-06T08:35:04.146Z,1025.65
2018-04-06T08:35:16.739Z,1025.65
2018-04-06T08:35:29.351Z,1025.68
2018-04-06T08:35:41.942Z,1025.67
2018-04-06T08:35:54.538Z,1025.67
2018-04-06T08:36:07.151Z,1025.64
2018-04-06T08:36:19.744Z,1025.72
2018-04-06T08:36:32.361Z,1025.69
2018-04-06T08:36:44.980Z,1025.68
2018-04-06T08:36:57.567Z,1025.66
2018-04-06T08:37:10.163Z,1025.67
2018-04-06T08:37:22.756Z,1025.67
2018-04-06T08:37:35.346Z,1025.63
2018-04-06T08:37:47.943Z,1025.65
2018-04-06T08:38:00.540Z,1025.67
2018-04-06T08:38:13.133Z,1025.68
2018-04-06T08:38:25.724Z,1025.65
2018-04-06T08:38:38.322Z,1025.65
2018-04-06T08:38:50.965Z,1025.73
2018-04-06T08:39:03.583Z,1025.71
2018-04-06T08:39:16.247Z,1025.72
2018-04-06T08:39:28.846Z,1025.68
2018-04-06T08:39:41.461Z,1025.70
2018-04-06T08:39:54.059Z,1025.69
2018-04-06T08:40:06.662Z,1025.67
2018-04-06T08:40:19.288Z,1025.73
2018-04-06T08:40:31.886Z,1025.68
2018-04-06T08:40:44.481Z,1025.74
2018-04-06T08:40:57.071Z,1025.72
2018-04-06T08:41:09.657Z,1025.71
2018-04-06T08:41:22.251Z,1025.73
2018-04-06T08:41:34.845Z,1025.76
2018-04-06T08:41:47.443Z,1025.77
2018-04-06T08:42:00.059Z,1025.74
2018-04-06T08:42:12.671Z,1025.75
2018-04-06T08:42:25.261Z,1025.73
2018-04-06T08:42:37.860Z,1025.74
2018-04-06T08:42:50.479Z,1025.73
2018-04-06T08:43:03.074Z,1025.76
2018-04-06T08:43:15.666Z,1025.73
2018-04-06T08:43:28.261Z,1025.71
2018-04-06T08:43:40.851Z,1025.71
2018-04-06T08:43:53.447Z,1025.71
2018-04-06T08:44:06.044Z,1025.68
2018-04-06T08:44:18.660Z,1025.73
2018-04-06T08:44:31.323Z,1025.73
2018-04-06T08:44:43.921Z,1025.69
2018-04-06T08:44:56.535Z,1025.70
2018-04-06T08:45:09.130Z,1025.66
2018-04-06T08:45:21.718Z,1025.72
2018-04-06T08:45:34.319Z,1025.71
2018-04-06T08:45:46.929Z,1025.69
2018-04-06T08:45:59.527Z,1025.71
2018-04-06T08:46:12.114Z,1025.69
2018-04-06T08:46:24.712Z,1025.68
2018-04-06T08:46:37.308Z,1025.73
2018-04-06T08:46:49.899Z,1025.69
2018-04-06T08:47:02.537Z,1025.71
2018-04-06T08:47:15.108Z,1025.72
2018-04-06T08:47:27.726Z,1025.73
2018-04-06T08:47:40.347Z,1025.75
2018-04-06T08:47:52.938Z,1025.72
2018-04-06T08:48:05.537Z,1025.74
2018-04-06T08:48:18.129Z,1025.74
2018-04-06T08:48:30.722Z,1025.76
2018-04-06T08:48:43.319Z,1025.77
2018-04-06T08:48:55.910Z,1025.74
2018-04-06T08:49:08.510Z,1025.71
2018-04-06T08:49:21.103Z,1025.71
2018-04-06T08:49:33.716Z,1025.74
2018-04-06T08:49:46.313Z,1025.75
2018-04-06T08:49:58.906Z,1025.73
2018-04-06T08:50:11.498Z,1025.71
2018-04-06T08:50:24.112Z,1025.71
2018-04-06T08:50:36.705Z,1025.71
2018-04-06T08:50:49.317Z,1025.74
2018-04-06T08:51:01.915Z,1025.73
2018-04-06T08:51:14.531Z,1025.72
2018-04-06T08:51:27.145Z,1025.74
2018-04-06T08:51:39.735Z,1025.73
2018-04-06T08:51:52.332Z,1025.72
2018-04-06T08:52:04.930Z,1025.75
2018-04-06T08:52:17.550Z,1025.74
2018-04-06T08:52:30.165Z,1025.70
2018-04-06T08:52:42.752Z,1025.76
2018-04-06T08:52:55.348Z,1025.74
2018-04-06T08:53:07.941Z,1025.70
2018-04-06T08:53:20.534Z,1025.71
2018-04-06T08:53:33.129Z,1025.72
2018-04-06T08:53:45.746Z,1025.73
2018-04-06T08:53:58.366Z,1025.74
2018-04-06T08:54:10.986Z,1025.72
2018-04-06T08:54:23.576Z,1025.70
2018-04-06T08:54:36.225Z,1025.73
2018-04-06T08:54:48.831Z,1025.71
2018-04-06T08:55:01.412Z,1025.75
2018-04-06T08:55:14.008Z,1025.72
2018-04-06T08:55:26.586Z,1025.73
2018-04-06T08:55:39.227Z,1025.68
2018-04-06T08:55:51.819Z,1025.70
2018-04-06T08:56:04.413Z,1025.72
2018-04-06T08:56:17.007Z,1025.67
2018-04-06T08:56:29.624Z,1025.70
2018-04-06T08:56:42.267Z,1025.68
2018-04-06T08:56:54.856Z,1025.71
2018-04-06T08:57:07.448Z,1025.70
2018-04-06T08:57:20.040Z,1025.73
2018-04-06T08:57:32.633Z,1025.70
2018-04-06T08:57:45.223Z,1025.73
2018-04-06T08:57:57.814Z,1025.71
2018-04-06T08:58:10.405Z,1025.73
2018-04-06T08:58:22.997Z,1025.71
2018-04-06T08:58:35.591Z,1025.72
2018-04-06T08:58:48.185Z,1025.74
2018-04-06T08:59:00.771Z,1025.76
2018-04-06T08:59:13.370Z,1025.75
2018-04-06T08:59:25.964Z,1025.77
2018-04-06T08:59:38.585Z,1025.77
2018-04-06T08:59:51.193Z,1025.76
2018-04-06T09:00:03.791Z,1025.74
2018-04-06T09:00:16.385Z,1025.81
2018-04-06T09:00:28.982Z,1025.75
2018-04-06T09:00:41.576Z,1025.76
2018-04-06T09:00:54.241Z,1025.74
2018-04-06T09:01:06.833Z,1025.75
2018-04-06T09:01:19.428Z,1025.76
2018-04-06T09:01:32.024Z,1025.78
2018-04-06T09:01:44.612Z,1025.73
2018-04-06T09:01:57.209Z,1025.76
2018-04-06T09:02:09.802Z,1025.73
2018-04-06T09:02:22.397Z,1025.78
2018-04-06T09:02:35.012Z,1025.72
2018-04-06T09:02:47.660Z,1025.76
2018-04-06T09:03:00.222Z,1025.77
2018-04-06T09:03:12.815Z,1025.80
2018-04-06T09:03:25.429Z,1025.79
2018-04-06T09:03:38.027Z,1025.78
2018-04-06T09:03:50.622Z,1025.79
2018-04-06T09:04:03.268Z,1025.76
2018-04-06T09:04:15.862Z,1025.78
2018-04-06T09:04:28.451Z,1025.77
2018-04-06T09:04:41.103Z,1025.78
2018-04-06T09:04:53.636Z,1025.78
2018-04-06T09:05:06.269Z,1025.81
2018-04-06T09:05:18.843Z,1025.75
2018-04-06T09:05:31.462Z,1025.79
2018-04-06T09:05:44.061Z,1025.81
2018-04-06T09:05:56.648Z,1025.80
2018-04-06T09:06:09.299Z,1025.77
2018-04-06T09:06:21.884Z,1025.80
2018-04-06T09:06:34.506Z,1025.81
2018-04-06T09:06:47.066Z,1025.79
2018-04-06T09:06:59.681Z,1025.82
2018-04-06T09:07:12.253Z,1025.84
2018-04-06T09:07:24.850Z,1025.81
2018-04-06T09:07:37.467Z,1025.79
2018-04-06T09:07:50.064Z,1025.84
2018-04-06T09:08:02.653Z,1025.80
2018-04-06T09:08:15.299Z,1025.80
2018-04-06T09:08:27.898Z,1025.82
2018-04-06T09:08:40.489Z,1025.80
2018-04-06T09:08:53.106Z,1025.79
2018-04-06T09:09:05.667Z,1025.79
2018-04-06T09:09:18.334Z,1025.77
2018-04-06T09:09:30.906Z,1025.77
2018-04-06T09:09:43.521Z,1025.82
2018-04-06T09:09:56.116Z,1025.82
2018-04-06T09:10:08.711Z,1025.82
2018-04-06T09:10:21.306Z,1025.81
2018-04-06T09:10:33.902Z,1025.83
2018-04-06T09:10:46.492Z,1025.82
2018-04-06T09:10:59.095Z,1025.86
2018-04-06T09:11:11.682Z,1025.84
2018-04-06T09:11:24.281Z,1025.82
2018-04-06T09:11:36.866Z,1025.83
2018-04-06T09:11:49.457Z,1025.81
2018-04-06T09:12:02.052Z,1025.82
2018-04-06T09:12:14.648Z,1025.85
2018-04-06T09:12:27.240Z,1025.83
2018-04-06T09:12:39.861Z,1025.87
2018-04-06T09:12:52.439Z,1025.81
2018-04-06T09:13:05.037Z,1025.83
2018-04-06T09:13:17.649Z,1025.77
2018-04-06T09:13:30.263Z,1025.81
2018-04-06T09:13:42.883Z,1025.82
2018-04-06T09:13:55.448Z,1025.79
2018-04-06T09:14:08.047Z,1025.86
2018-04-06T09:14:20.637Z,1025.81
2018-04-06T09:14:33.288Z,1025.88
2018-04-06T09:14:45.874Z,1025.83
2018-04-06T09:14:58.470Z,1025.81
2018-04-06T09:15:11.064Z,1025.77
2018-04-06T09:15:23.660Z,1025.81
2018-04-06T09:15:36.274Z,1025.80
2018-04-06T09:15:48.867Z,1025.79
2018-04-06T09:16:01.460Z,1025.80
2018-04-06T09:16:14.106Z,1025.78
2018-04-06T09:16:26.696Z,1025.79
2018-04-06T09:16:39.293Z,1025.81
2018-04-06T09:16:51.892Z,1025.82
2018-04-06T09:17:04.509Z,1025.81
2018-04-06T09:17:17.100Z,1025.78
2018-04-06T09:17:29.690Z,1025.77
2018-04-06T09:17:42.288Z,1025.78
2018-04-06T09:17:54.905Z,1025.80
2018-04-06T09:18:07.520Z,1025.80
2018-04-06T09:18:20.118Z,1025.77
2018-04-06T09:18:32.735Z,1025.84
2018-04-06T09:18:45.328Z,1025.83
2018-04-06T09:18:57.921Z,1025.79
2018-04-06T09:19:10.520Z,1025.82
2018-04-06T09:19:23.129Z,1025.81
2018-04-06T09:19:35.719Z,1025.78
2018-04-06T09:19:48.317Z,1025.81
2018-04-06T09:20:00.931Z,1025.81
2018-04-06T09:20:13.524Z,1025.82
2018-04-06T09:20:26.149Z,1025.82
2018-04-06T09:20:38.765Z,1025.79
2018-04-06T09:20:51.381Z,1025.78
2018-04-06T09:21:03.977Z,1025.84
2018-04-06T09:21:16.637Z,1025.87
2018-04-06T09:21:29.186Z,1025.90
2018-04-06T09:21:41.783Z,1025.91
2018-04-06T09:21:54.375Z,1025.91
2018-04-06T09:22:06.977Z,1025.82
2018-04-06T09:22:19.584Z,1025.86
2018-04-06T09:22:32.179Z,1025.86
2018-04-06T09:22:44.797Z,1025.85
2018-04-06T09:22:57.390Z,1025.92
2018-04-06T09:23:09.983Z,1025.90
2018-04-06T09:23:22.589Z,1025.84
2018-04-06T09:23:35.245Z,1025.88
2018-04-06T09:23:47.847Z,1025.89
2018-04-06T09:24:00.456Z,1025.86
2018-04-06T09:24:13.057Z,1025.85
2018-04-06T09:24:25.649Z,1025.83
2018-04-06T09:24:38.243Z,1025.84
2018-04-06T09:24:50.857Z,1025.84
2018-04-06T09:25:03.459Z,1025.88
2018-04-06T09:25:16.076Z,1025.83
2018-04-06T09:25:28.675Z,1025.87
2018-04-06T09:25:41.342Z,1025.85
2018-04-06T09:25:53.942Z,1025.91
2018-04-06T09:26:06.527Z,1025.87
2018-04-06T09:26:19.122Z,1025.86
2018-04-06T09:26:31.718Z,1025.92
2018-04-06T09:26:44.310Z,1025.92
2018-04-06T09:26:56.906Z,1025.87
2018-04-06T09:27:09.525Z,1025.89
2018-04-06T09:27:22.142Z,1025.81
2018-04-06T09:27:34.734Z,1025.83
2018-04-06T09:27:47.329Z,1025.82
2018-04-06T09:27:59.924Z,1025.86
2018-04-06T09:28:12.512Z,1025.81
2018-04-06T09:28:25.112Z,1025.86
2018-04-06T09:28:37.732Z,1025.81
2018-04-06T09:28:50.342Z,1025.82
2018-04-06T09:29:02.933Z,1025.82
2018-04-06T09:29:15.529Z,1025.80
2018-04-06T09:29:28.119Z,1025.80
2018-04-06T09:29:40.715Z,1025.81
2018-04-06T09:29:53.315Z,1025.83
2018-04-06T09:30:05.937Z,1025.82
2018-04-06T09:30:18.528Z,1025.83
2018-04-06T09:30:31.147Z,1025.82
2018-04-06T09:30:43.764Z,1025.80
2018-04-06T09:30:56.359Z,1025.80
2018-04-06T09:31:08.984Z,1025.81
2018-04-06T09:31:21.570Z,1025.80
2018-04-06T09:31:34.169Z,1025.80
2018-04-06T09:31:46.785Z,1025.81
2018-04-06T09:31:59.605Z,1025.81
2018-04-06T09:32:12.214Z,1025.81
2018-04-06T09:32:24.815Z,1025.81
2018-04-06T09:32:37.406Z,1025.79
2018-04-06T09:32:50.065Z,1025.80
2018-04-06T09:33:02.661Z,1025.80
2018-04-06T09:33:15.263Z,1025.80
2018-04-06T09:33:27.847Z,1025.81
2018-04-06T09:33:40.445Z,1025.77
2018-04-06T09:33:53.056Z,1025.80
2018-04-06T09:34:05.655Z,1025.79
2018-04-06T09:34:18.271Z,1025.81
2018-04-06T09:34:30.915Z,1025.84
2018-04-06T09:34:43.460Z,1025.81
2018-04-06T09:34:56.043Z,1025.79
2018-04-06T09:35:08.636Z,1025.78
2018-04-06T09:35:21.230Z,1025.77
2018-04-06T09:35:33.822Z,1025.75
2018-04-06T09:35:46.413Z,1025.76
2018-04-06T09:35:59.011Z,1025.73
2018-04-06T09:36:11.625Z,1025.72
2018-04-06T09:36:24.244Z,1025.70
2018-04-06T09:36:36.860Z,1025.72
2018-04-06T09:36:49.457Z,1025.72
2018-04-06T09:37:02.068Z,1025.72
2018-04-06T09:37:14.659Z,1025.74
2018-04-06T09:37:27.253Z,1025.74
2018-04-06T09:37:39.850Z,1025.75
2018-04-06T09:37:52.446Z,1025.82
2018-04-06T09:38:05.068Z,1025.81
2018-04-06T09:38:17.664Z,1025.78
2018-04-06T09:38:30.334Z,1025.78
2018-04-06T09:38:42.950Z,1025.76
2018-04-06T09:38:55.553Z,1025.72
2018-04-06T09:39:08.139Z,1025.81
2018-04-06T09:39:20.736Z,1025.80
2018-04-06T09:39:33.316Z,1025.79
2018-04-06T09:39:45.912Z,1025.73
2018-04-06T09:39:58.525Z,1025.78
2018-04-06T09:40:11.175Z,1025.77
2018-04-06T09:40:23.784Z,1025.72
2018-04-06T09:40:36.376Z,1025.73
2018-04-06T09:40:48.974Z,1025.71
2018-04-06T09:41:01.566Z,1025.76
2018-04-06T09:41:14.231Z,1025.71
2018-04-06T09:41:26.822Z,1025.72
2018-04-06T09:41:39.503Z,1025.72
2018-04-06T09:41:52.020Z,1025.73
2018-04-06T09:42:04.610Z,1025.71
2018-04-06T09:42:17.222Z,1025.72
2018-04-06T09:42:29.815Z,1025.74
2018-04-06T09:42:42.402Z,1025.71
2018-04-06T09:42:55.001Z,1025.73
2018-04-06T09:43:07.614Z,1025.78
2018-04-06T09:43:20.257Z,1025.79
2018-04-06T09:43:32.847Z,1025.78
2018-04-06T09:43:45.449Z,1025.75
2018-04-06T09:43:58.060Z,1025.74
2018-04-06T09:44:10.660Z,1025.75
2018-04-06T09:44:23.276Z,1025.74
2018-04-06T09:44:35.895Z,1025.76
2018-04-06T09:44:48.494Z,1025.77
2018-04-06T09:45:01.110Z,1025.75
2018-04-06T09:45:13.705Z,1025.74
2018-04-06T09:45:26.323Z,1025.74
2018-04-06T09:45:38.944Z,1025.75
2018-04-06T09:45:51.529Z,1025.76
2018-04-06T09:46:04.125Z,1025.74
2018-04-06T09:46:16.700Z,1025.73
2018-04-06T09:46:29.296Z,1025.71
2018-04-06T09:46:41.953Z,1025.71
2018-04-06T09:46:54.560Z,1025.70
2018-04-06T09:47:07.166Z,1025.73
2018-04-06T09:47:19.783Z,1025.72
2018-04-06T09:47:32.384Z,1025.70
2018-04-06T09:47:44.994Z,1025.70
2018-04-06T09:47:57.592Z,1025.71
2018-04-06T09:48:10.208Z,1025.69
2018-04-06T09:48:22.822Z,1025.70
2018-04-06T09:48:35.415Z,1025.71
2018-04-06T09:48:48.013Z,1025.71
2018-04-06T09:49:00.628Z,1025.68
2018-04-06T09:49:13.217Z,1025.68
2018-04-06T09:49:25.839Z,1025.69
2018-04-06T09:49:38.483Z,1025.66
2018-04-06T09:49:51.037Z,1025.68
2018-04-06T09:50:03.662Z,1025.74
2018-04-06T09:50:16.276Z,1025.69
2018-04-06T09:50:28.873Z,1025.67
2018-04-06T09:50:41.488Z,1025.74
2018-04-06T09:50:54.080Z,1025.75
2018-04-06T09:51:06.684Z,1025.69
2018-04-06T09:51:19.272Z,1025.72
2018-04-06T09:51:31.885Z,1025.73
2018-04-06T09:51:44.476Z,1025.74
2018-04-06T09:51:57.081Z,1025.75
2018-04-06T09:52:09.690Z,1025.73
2018-04-06T09:52:22.281Z,1025.68
2018-04-06T09:52:34.882Z,1025.68
2018-04-06T09:52:47.499Z,1025.72
2018-04-06T09:53:00.168Z,1025.75
2018-04-06T09:53:12.764Z,1025.76
2018-04-06T09:53:25.353Z,1025.71
2018-04-06T09:53:37.945Z,1025.70
2018-04-06T09:53:50.543Z,1025.69
2018-04-06T09:54:03.140Z,1025.71
2018-04-06T09:54:15.739Z,1025.70
2018-04-06T09:54:28.328Z,1025.69
2018-04-06T09:54:40.923Z,1025.68
2018-04-06T09:54:53.511Z,1025.70
2018-04-06T09:55:06.109Z,1025.73
2018-04-06T09:55:18.724Z,1025.71
2018-04-06T09:55:31.324Z,1025.69
2018-04-06T09:55:43.935Z,1025.76
2018-04-06T09:55:56.534Z,1025.73
2018-04-06T09:56:09.127Z,1025.73
2018-04-06T09:56:21.711Z,1025.72
2018-04-06T09:56:34.309Z,1025.72
2018-04-06T09:56:46.925Z,1025.68
2018-04-06T09:56:59.543Z,1025.71
2018-04-06T09:57:12.136Z,1025.74
2018-04-06T09:57:24.771Z,1025.68
2018-04-06T09:57:37.342Z,1025.69
2018-04-06T09:57:49.937Z,1025.72
2018-04-06T09:58:02.535Z,1025.72
2018-04-06T09:58:15.180Z,1025.69
2018-04-06T09:58:27.771Z,1025.69
2018-04-06T09:58:40.369Z,1025.63
2018-04-06T09:58:53.008Z,1025.60
2018-04-06T09:59:05.619Z,1025.60
2018-04-06T09:59:18.218Z,1025.60
2018-04-06T09:59:30.812Z,1025.62
2018-04-06T09:59:43.430Z,1025.60